Flight Track Log - Related Links

Times and Time Zones

All times are in EDT time to prevent confusion due to time zone crossing. See the UAL538 flight status page for this flight to view local times or setup timezone preferences in your user account.

Time Position Orientation Groundspeed Altitude Reporting Facility
EDT Latitude Longitude Course Direction KTS MPH feet Rate Location/Type
Tue 04:03:54 PM 37.6500 -122.3667 122° Southeast 150 173 1,600  Level Northern Cal TRACON
Tue 04:04:54 PM 37.7000 -122.3833 345° North 215 247 3,900 2,762 Climbing Northern Cal TRACON
Tue 04:06:00 PM 37.4465 -122.4062 113° Southeast  Level FlightAware Approximate
Tue 04:06:00 PM 37.6667 -122.4500 238° Southwest 303 349 7,400  Level Northern Cal TRACON
Tue 04:06:54 PM 37.5833 -122.4833 198° South 307 353 10,700 3,000 Climbing Northern Cal TRACON
Tue 04:07:00 PM 37.3900 -122.2767 130° Southeast  Level FlightAware Approximate
Tue 04:07:20 PM 37.5672 -122.4825 178° South 304 350 11,400  Level Oakland Center
Tue 04:08:00 PM 37.3051 -122.1728 136° Southeast  Level FlightAware Approximate
Tue 04:08:22 PM 37.4878 -122.3858 136° Southeast 346 398 13,400  Level Oakland Center
Tue 04:09:00 PM 37.2301 -122.0602 122° Southeast  Level FlightAware Approximate
Tue 04:09:23 PM 37.4169 -122.2783 130° Southeast 386 444 15,100  Level Oakland Center
Tue 04:10:24 PM 37.3411 -122.1625 129° Southeast 421 484 17,600 2,311 Climbing Oakland Center
Tue 04:11:25 PM 37.2639 -122.0464 130° Southeast 432 497 19,800 2,000 Climbing Oakland Center
Tue 04:12:27 PM 37.1831 -121.9256 130° Southeast 450 518 21,700 1,854 Climbing Oakland Center
Tue 04:13:28 PM 37.0950 -121.7908 129° Southeast 463 533 23,600 1,672 Climbing Oakland Center
Tue 04:14:29 PM 37.0164 -121.6756 130° Southeast 472 543 25,100 1,512 Climbing Oakland Center
Tue 04:15:31 PM 36.9297 -121.5472 130° Southeast 480 552 26,700 1,463 Climbing Oakland Center
Tue 04:16:32 PM 36.8419 -121.4142 129° Southeast 494 568 28,100 1,820 Climbing Oakland Center
Tue 04:17:33 PM 36.7367 -121.2606 131° Southeast 487 560 30,400 1,918 Climbing Oakland Center
Tue 04:18:34 PM 36.6497 -121.1339 131° Southeast 482 555 32,000 1,463 Climbing Oakland Center
Tue 04:19:36 PM 36.5636 -121.0086 131° Southeast 478 550 33,400 1,317 Climbing Oakland Center
Tue 04:20:37 PM 36.4814 -120.8892 131° Southeast 479 551 34,700 1,426 Climbing Oakland Center
Tue 04:21:38 PM 36.3850 -120.7492 131° Southeast 473 544 36,300 1,122 Climbing Oakland Center
Tue 04:22:40 PM 36.2989 -120.6267 131° Southeast 470 541 37,000 293 Climbing Oakland Center
Tue 04:23:41 PM 36.2239 -120.5200 131° Southeast 471 542 36,900  Descending Oakland Center
Tue 04:24:42 PM 36.1261 -120.3775 130° Southeast 474 545 37,000  Climbing Oakland Center
Tue 04:25:43 PM 36.0364 -120.2506 131° Southeast 465 535 36,900 -49 Descending Oakland Center
Tue 04:26:44 PM 35.9519 -120.1306 131° Southeast 464 534 36,900 49 Level Oakland Center
Tue 04:27:46 PM 35.8669 -120.0106 131° Southeast 464 534 37,000 49 Climbing Oakland Center
Tue 04:28:47 PM 35.7819 -119.8903 131° Southeast 464 534 37,000  Level Oakland Center
Tue 04:29:48 PM 35.6972 -119.7706 131° Southeast 463 533 37,000  Level Oakland Center
Tue 04:30:49 PM 35.6164 -119.6467 129° Southeast 464 534 37,000  Level Oakland Center
Tue 04:31:51 PM 35.5386 -119.5183 127° Southeast 466 536 37,000  Level Oakland Center
Tue 04:32:52 PM 35.4606 -119.3911 127° Southeast 466 536 37,000  Level Oakland Center
Tue 04:33:07 PM 35.4439 -119.3650 128° Southeast 465 535 37,000  Level Los Angeles Center
Tue 04:34:09 PM 35.3669 -119.2394 127° Southeast 463 533 37,000  Level Los Angeles Center
Tue 04:35:11 PM 35.2744 -119.0892 127° Southeast 462 532 37,000  Level Los Angeles Center
Tue 04:36:14 PM 35.1983 -118.9647 127° Southeast 459 528 37,000  Level Los Angeles Center
Tue 04:37:16 PM 35.1203 -118.8422 128° Southeast 458 527 37,000  Level Los Angeles Center
Tue 04:38:18 PM 35.0436 -118.7172 127° Southeast 460 529 37,000  Level Los Angeles Center
Tue 04:39:20 PM 34.9656 -118.5931 127° Southeast 462 532 37,000  Level Los Angeles Center
Tue 04:40:22 PM 34.8719 -118.4433 127° Southeast 466 536 37,000  Level Los Angeles Center
Tue 04:41:24 PM 34.7933 -118.3194 128° Southeast 465 535 37,000  Level Los Angeles Center
Tue 04:42:26 PM 34.7144 -118.1967 128° Southeast 464 534 37,000  Level Los Angeles Center
Tue 04:43:28 PM 34.6411 -118.0703 125° Southeast 461 531 37,000  Level Los Angeles Center
Tue 04:44:30 PM 34.5892 -117.9278 114° Southeast 465 535 37,000  Level Los Angeles Center
Tue 04:45:33 PM 34.5383 -117.7542 110° East 461 531 37,000  Level Los Angeles Center
Tue 04:46:35 PM 34.4953 -117.6100 110° East 460 529 37,000  Level Los Angeles Center
Tue 04:47:37 PM 34.4514 -117.4647 110° East 462 532 37,000  Level Los Angeles Center
Tue 04:48:39 PM 34.4072 -117.3194 110° East 463 533 37,000  Level Los Angeles Center
Tue 04:49:41 PM 34.3639 -117.1756 110° East 457 526 37,000  Level Los Angeles Center
Tue 04:50:43 PM 34.3114 -117.0014 110° East 462 532 37,000  Level Los Angeles Center
Tue 04:51:45 PM 34.2672 -116.8558 110° East 464 534 37,000  Level Los Angeles Center
Tue 04:52:47 PM 34.2228 -116.7119 110° East 460 529 37,000  Level Los Angeles Center
Tue 04:54:02 PM 34.1694 -116.5403 111° Southeast 457 526 37,000 -40 Level Los Angeles Center
Tue 04:55:16 PM 34.1086 -116.3508 111° Southeast 447 514 36,900  Descending Los Angeles Center
Tue 04:56:18 PM 34.0642 -116.2097 111° Southeast 447 514 37,000  Climbing Los Angeles Center
Tue 04:57:21 PM 34.0192 -116.0658 111° Southeast 454 522 36,900 -48 Descending Los Angeles Center
Tue 04:58:23 PM 33.9739 -115.9244 111° Southeast 454 522 36,900 48 Level Los Angeles Center
Tue 04:59:25 PM 33.9275 -115.7781 111° Southeast 463 533 37,000 48 Climbing Los Angeles Center
Tue 05:00:27 PM 33.8714 -115.6075 112° Southeast 456 525 37,000 -48 Level Los Angeles Center
Tue 05:01:29 PM 33.8258 -115.4656 111° Southeast 453 521 36,900 -48 Descending Los Angeles Center
Tue 05:02:31 PM 33.7792 -115.3244 112° Southeast 454 522 36,900  Level Los Angeles Center
Tue 05:03:33 PM 33.7328 -115.1806 111° Southeast 460 529 36,900 -387 Level Los Angeles Center
Tue 05:04:35 PM 33.6872 -115.0394 111° Southeast 455 524 36,100 -823 Descending Los Angeles Center
Tue 05:05:37 PM 33.6403 -114.8969 112° Southeast 458 527 35,200 -1,016 Descending Los Angeles Center
Tue 05:06:39 PM 33.5878 -114.7267 110° East 455 524 34,000 -1,128 Descending Los Angeles Center
Tue 05:07:34 PM 33.5669 -114.6142 103° East 457 526 33,000 -1,590 Descending Albuquerque Center
Tue 05:08:36 PM 33.5411 -114.4650 102° East 457 526 30,900 -2,323 Descending Albuquerque Center
Tue 05:09:38 PM 33.5072 -114.2953 103° East 441 507 28,200 -2,341 Descending Albuquerque Center
Tue 05:10:39 PM 33.4803 -114.1572 103° East 429 494 26,100 -1,805 Descending Albuquerque Center
Tue 05:11:41 PM 33.4528 -114.0250 104° East 415 478 24,500 -1,258 Descending Albuquerque Center
Tue 05:12:43 PM 33.4264 -113.8931 103° East 410 472 23,500 -968 Descending Albuquerque Center
Tue 05:13:45 PM 33.4000 -113.7603 103° East 410 472 22,500 -968 Descending Albuquerque Center
Tue 05:14:47 PM 33.3736 -113.6317 104° East 402 463 21,500 -968 Descending Albuquerque Center
Tue 05:15:49 PM 33.3464 -113.5036 104° East 399 459 20,500 -1,065 Descending Albuquerque Center
Tue 05:16:51 PM 33.3153 -113.3508 104° East 394 453 19,300 -1,016 Descending Albuquerque Center
Tue 05:17:53 PM 33.2903 -113.2272 104° East 386 444 18,400 -1,016 Descending Albuquerque Center
Tue 05:18:55 PM 33.2750 -113.1017 98° East 384 442 17,200 -919 Descending Albuquerque Center
Tue 05:19:57 PM 33.2769 -112.9806 89° East 362 417 16,500 -677 Descending Albuquerque Center
Tue 05:20:59 PM 33.2789 -112.8619 89° East 357 411 15,800 -629 Descending Albuquerque Center
Tue 05:22:01 PM 33.2822 -112.7486 88° East 348 400 15,200 -774 Descending Albuquerque Center
Tue 05:23:03 PM 33.2842 -112.6394 89° East 334 384 14,200 -1,065 Descending Albuquerque Center
Tue 05:24:05 PM 33.2883 -112.5269 87° East 324 373 13,000 -1,161 Descending Albuquerque Center
Tue 05:25:07 PM 33.2906 -112.4217 89° East 319 367 11,800 -1,210 Descending Albuquerque Center
Tue 05:26:09 PM 33.2956 -112.2986 87° East 311 358 10,500 -968 Descending Albuquerque Center
Tue 05:27:11 PM 33.3025 -112.2067 85° East 283 326 9,800 -629 Descending Albuquerque Center
Tue 05:28:13 PM 33.3089 -112.1203 85° East 265 305 9,200 -774 Descending Albuquerque Center
Tue 05:29:15 PM 33.3256 -112.0381 76° East 257 296 8,200 -1,016 Descending Albuquerque Center
Tue 05:30:17 PM 33.3453 -111.9558 74° East 259 298 7,100 -1,016 Descending Albuquerque Center
Tue 05:31:19 PM 33.3456 -111.8564 90° East 252 290 6,100 -968 Descending Albuquerque Center

Login

Don't have an account? Register now (free) for customized features, flight alerts, and more!